createdAt,value
2022-11-24T00:00:30.281Z,6.37
2022-11-24T00:02:56.958Z,6.44
2022-11-24T00:05:23.672Z,6.56
2022-11-24T00:07:50.313Z,6.59
2022-11-24T00:10:16.990Z,6.66
2022-11-24T00:12:43.492Z,6.66
2022-11-24T00:15:10.239Z,6.69
2022-11-24T00:17:36.728Z,6.70
2022-11-24T00:20:03.599Z,6.73
2022-11-24T00:22:30.687Z,6.70
2022-11-24T00:24:57.181Z,6.73
2022-11-24T00:27:23.659Z,6.75
2022-11-24T00:29:50.192Z,6.88
2022-11-24T00:32:16.691Z,6.98
2022-11-24T00:34:43.272Z,6.97
2022-11-24T00:37:09.932Z,6.95
2022-11-24T00:39:36.427Z,6.91
2022-11-24T00:42:02.992Z,6.89
2022-11-24T00:44:29.485Z,6.80
2022-11-24T00:46:56.126Z,6.67
2022-11-24T00:49:22.692Z,6.59
2022-11-24T00:51:49.176Z,6.46
2022-11-24T00:54:15.683Z,6.40
2022-11-24T00:56:42.179Z,6.34
2022-11-24T00:59:08.803Z,6.35
2022-11-24T01:01:35.755Z,6.26
2022-11-24T01:04:04.029Z,6.33
2022-11-24T01:06:32.430Z,6.31
2022-11-24T01:08:59.104Z,6.23
2022-11-24T01:11:28.738Z,6.22
2022-11-24T01:13:58.115Z,6.22
2022-11-24T01:16:27.841Z,6.19
2022-11-24T01:18:55.258Z,6.20
2022-11-24T01:21:21.928Z,6.27
2022-11-24T01:23:48.488Z,6.28
2022-11-24T01:26:17.440Z,6.24
2022-11-24T01:28:47.586Z,6.27
2022-11-24T01:31:15.138Z,6.24
2022-11-24T01:33:41.683Z,6.18
2022-11-24T01:36:08.212Z,6.14
2022-11-24T01:38:34.643Z,6.02
2022-11-24T01:41:03.812Z,5.97
2022-11-24T01:43:30.293Z,5.86
2022-11-24T01:45:57.283Z,5.81
2022-11-24T01:48:43.680Z,5.72
2022-11-24T01:51:10.053Z,5.51
2022-11-24T01:53:37.002Z,5.33
2022-11-24T01:56:04.177Z,5.44
2022-11-24T01:58:32.242Z,5.58
2022-11-24T02:00:59.149Z,5.41
2022-11-24T02:03:27.996Z,5.50
2022-11-24T02:05:59.452Z,5.62
2022-11-24T02:08:37.795Z,5.71
2022-11-24T02:11:04.513Z,6.03
2022-11-24T02:13:31.939Z,6.12
2022-11-24T02:15:58.511Z,5.82
2022-11-24T02:18:24.931Z,5.72
2022-11-24T02:20:51.387Z,5.67
2022-11-24T02:23:24.788Z,5.80
2022-11-24T02:25:51.163Z,5.99
2022-11-24T02:28:19.732Z,6.15
2022-11-24T02:30:46.671Z,6.13
2022-11-24T02:33:13.498Z,6.04
2022-11-24T02:35:46.018Z,5.79
2022-11-24T02:38:15.934Z,5.58
2022-11-24T02:40:44.761Z,5.44
2022-11-24T02:43:13.652Z,5.31
2022-11-24T02:45:40.024Z,5.23
2022-11-24T02:48:06.604Z,5.21
2022-11-24T02:50:33.174Z,5.27
2022-11-24T02:52:59.540Z,5.11
2022-11-24T02:55:26.095Z,4.95
2022-11-24T02:57:52.555Z,4.90
2022-11-24T03:00:19.181Z,4.45
2022-11-24T03:02:45.696Z,4.31
2022-11-24T03:05:12.836Z,4.21
2022-11-24T03:07:39.371Z,3.92
2022-11-24T03:10:06.302Z,3.88
2022-11-24T03:12:32.742Z,3.90
2022-11-24T03:14:59.135Z,3.65
2022-11-24T03:17:25.593Z,3.50
2022-11-24T03:19:51.977Z,3.24
2022-11-24T03:22:18.371Z,3.19
2022-11-24T03:24:44.750Z,3.21
2022-11-24T03:27:11.139Z,3.01
2022-11-24T03:29:37.541Z,2.95
2022-11-24T03:32:04.071Z,2.83
2022-11-24T03:34:30.464Z,2.75
2022-11-24T03:36:56.875Z,2.78
2022-11-24T03:39:23.276Z,2.88
2022-11-24T03:41:51.335Z,2.99
2022-11-24T03:44:18.002Z,2.95
2022-11-24T03:46:44.822Z,2.83
2022-11-24T03:49:11.281Z,2.78
2022-11-24T03:51:37.722Z,2.79
2022-11-24T03:54:04.122Z,2.85
2022-11-24T03:56:30.580Z,3.03
2022-11-24T03:58:56.983Z,3.10
2022-11-24T04:01:23.435Z,3.41
2022-11-24T04:03:49.831Z,3.64
2022-11-24T04:06:16.227Z,3.71
2022-11-24T04:08:42.619Z,3.82
2022-11-24T04:11:29.004Z,3.95
2022-11-24T04:13:55.445Z,3.98
2022-11-24T04:16:21.839Z,4.21
2022-11-24T04:18:48.248Z,4.34
2022-11-24T04:21:14.623Z,4.75
2022-11-24T04:23:40.950Z,4.93
2022-11-24T04:26:07.911Z,4.89
2022-11-24T04:28:34.296Z,4.90
2022-11-24T04:31:04.414Z,4.89
2022-11-24T04:33:30.878Z,4.85
2022-11-24T04:35:57.329Z,4.84
2022-11-24T04:39:23.290Z,4.80
2022-11-24T04:41:09.999Z,4.76
2022-11-24T04:43:40.469Z,4.75
2022-11-24T04:46:10.124Z,4.74
2022-11-24T04:48:36.479Z,4.86
2022-11-24T04:51:06.323Z,4.91
2022-11-24T04:53:32.652Z,4.95
2022-11-24T04:55:59.023Z,4.85
2022-11-24T04:58:25.360Z,4.85
2022-11-24T05:00:51.676Z,4.93
2022-11-24T05:03:18.028Z,5.07
2022-11-24T05:05:44.352Z,5.01
2022-11-24T05:08:10.692Z,5.02
2022-11-24T05:10:37.213Z,5.02
2022-11-24T05:13:05.594Z,4.99
2022-11-24T05:15:32.091Z,4.91
2022-11-24T05:17:58.474Z,4.87
2022-11-24T05:20:25.177Z,4.94
2022-11-24T05:22:51.636Z,4.99
2022-11-24T05:25:18.167Z,4.95
2022-11-24T05:27:44.615Z,4.98
2022-11-24T05:30:11.399Z,5.02
2022-11-24T05:32:37.847Z,5.05
2022-11-24T05:35:05.368Z,5.13
2022-11-24T05:37:31.880Z,5.14
2022-11-24T05:39:58.416Z,5.21
2022-11-24T05:42:47.089Z,5.19
2022-11-24T05:45:19.970Z,5.18
2022-11-24T05:47:46.952Z,5.17
2022-11-24T05:50:16.449Z,5.24
2022-11-24T05:52:43.063Z,5.28
2022-11-24T05:55:11.031Z,5.27
2022-11-24T05:57:37.917Z,5.27
2022-11-24T06:00:05.652Z,5.23
2022-11-24T06:02:39.287Z,5.20
2022-11-24T06:05:06.059Z,5.23
2022-11-24T06:07:32.582Z,5.24
2022-11-24T06:09:59.169Z,5.24
2022-11-24T06:12:25.630Z,5.35
2022-11-24T06:14:52.349Z,5.34
2022-11-24T06:17:18.771Z,5.45
2022-11-24T06:19:47.759Z,5.54
2022-11-24T06:22:14.249Z,5.55
2022-11-24T06:24:40.800Z,5.42
2022-11-24T06:27:07.621Z,5.55
2022-11-24T06:29:34.095Z,5.53
2022-11-24T06:32:00.629Z,5.44
2022-11-24T06:34:27.102Z,5.60
2022-11-24T06:36:53.616Z,5.63
2022-11-24T06:39:20.125Z,5.67
2022-11-24T06:41:46.582Z,5.75
2022-11-24T06:44:13.013Z,5.62
2022-11-24T06:46:39.431Z,5.64
2022-11-24T06:49:05.898Z,5.73
2022-11-24T06:51:32.401Z,5.81
2022-11-24T06:53:59.035Z,5.70
2022-11-24T06:56:25.590Z,5.86
2022-11-24T06:58:53.656Z,5.94
2022-11-24T07:01:26.145Z,5.92
2022-11-24T07:03:53.991Z,5.84
2022-11-24T07:06:22.042Z,5.90
2022-11-24T07:08:49.117Z,5.79
2022-11-24T07:11:18.671Z,5.69
2022-11-24T07:13:46.240Z,5.68
2022-11-24T07:16:21.386Z,5.66
2022-11-24T07:18:49.383Z,5.75
2022-11-24T07:21:16.311Z,5.81
2022-11-24T07:23:42.743Z,5.79
2022-11-24T07:26:10.269Z,5.75
2022-11-24T07:28:37.551Z,5.72
2022-11-24T07:31:18.863Z,5.78
2022-11-24T07:33:49.649Z,5.79
2022-11-24T07:36:16.163Z,5.77
2022-11-24T07:38:42.608Z,5.66
2022-11-24T07:41:11.897Z,5.75
2022-11-24T07:43:39.162Z,5.75
2022-11-24T07:46:07.054Z,5.66
2022-11-24T07:48:33.791Z,5.60
2022-11-24T07:51:00.453Z,5.46
2022-11-24T07:53:27.547Z,5.34
2022-11-24T07:55:55.492Z,5.25
2022-11-24T07:58:22.587Z,5.24
2022-11-24T08:00:49.059Z,5.24
2022-11-24T08:03:15.439Z,5.31
2022-11-24T08:06:07.784Z,5.28
2022-11-24T08:08:28.176Z,5.28
2022-11-24T08:10:54.530Z,5.31
2022-11-24T08:13:20.979Z,5.41
2022-11-24T08:15:47.480Z,5.42
2022-11-24T08:18:13.814Z,5.30
2022-11-24T08:20:40.198Z,5.34
2022-11-24T08:23:06.749Z,5.41
2022-11-24T08:25:33.541Z,5.36
2022-11-24T08:28:00.185Z,5.39
2022-11-24T08:30:26.667Z,5.39
2022-11-24T08:32:53.560Z,5.33
2022-11-24T08:35:20.164Z,5.33
2022-11-24T08:37:46.547Z,5.38
2022-11-24T08:40:13.366Z,5.40
2022-11-24T08:42:39.896Z,5.44
2022-11-24T08:45:19.931Z,5.45
2022-11-24T08:47:51.031Z,5.40
2022-11-24T08:50:17.414Z,5.40
2022-11-24T08:52:43.814Z,5.47
2022-11-24T08:55:11.191Z,5.47
2022-11-24T08:57:37.561Z,5.62
2022-11-24T09:00:04.787Z,5.70
2022-11-24T09:02:31.171Z,5.82
2022-11-24T09:04:57.597Z,5.95
2022-11-24T09:07:24.041Z,5.89
2022-11-24T09:09:50.416Z,5.95
2022-11-24T09:12:16.734Z,5.85
2022-11-24T09:14:43.141Z,5.83
2022-11-24T09:17:09.522Z,5.81
2022-11-24T09:19:36.312Z,5.76
2022-11-24T09:22:02.822Z,5.98
2022-11-24T09:24:29.163Z,5.92
2022-11-24T09:26:56.451Z,5.89
2022-11-24T09:29:22.858Z,5.94
2022-11-24T09:31:49.222Z,5.88
2022-11-24T09:34:16.230Z,5.94
2022-11-24T09:36:42.782Z,6.02
2022-11-24T09:39:10.227Z,6.08
2022-11-24T09:41:39.444Z,6.22
2022-11-24T09:44:08.860Z,6.23
2022-11-24T09:46:47.503Z,6.26
2022-11-24T09:49:46.143Z,6.32
2022-11-24T09:52:17.961Z,6.29
2022-11-24T09:54:58.196Z,6.37
2022-11-24T09:57:26.407Z,6.40
2022-11-24T09:59:54.420Z,6.45
2022-11-24T10:02:20.797Z,6.45
2022-11-24T10:04:47.298Z,6.54
2022-11-24T10:07:13.745Z,6.73
2022-11-24T10:09:40.173Z,6.56
2022-11-24T10:12:06.528Z,6.55
2022-11-24T10:14:51.528Z,6.52
2022-11-24T10:17:26.419Z,6.43
2022-11-24T10:19:58.648Z,6.42
2022-11-24T10:22:28.013Z,6.40
2022-11-24T10:25:01.562Z,6.31
2022-11-24T10:27:35.712Z,6.44
2022-11-24T10:30:02.076Z,6.40
2022-11-24T10:32:35.741Z,6.44
2022-11-24T10:35:14.501Z,6.60
2022-11-24T10:37:44.636Z,6.69
2022-11-24T10:43:10.479Z,6.82
2022-11-24T10:45:39.166Z,6.73
2022-11-24T10:48:16.839Z,6.81
2022-11-24T10:50:43.327Z,6.89
2022-11-24T10:53:12.688Z,6.94
2022-11-24T10:55:54.402Z,7.07
2022-11-24T10:58:37.712Z,7.16
2022-11-24T11:01:13.749Z,7.31
2022-11-24T11:03:47.912Z,7.48
2022-11-24T11:06:36.275Z,7.36
2022-11-24T11:09:08.562Z,7.47
2022-11-24T11:11:35.807Z,7.41
2022-11-24T11:14:04.768Z,7.41
2022-11-24T11:16:31.348Z,7.49
2022-11-24T11:18:57.830Z,7.57
2022-11-24T11:21:28.220Z,7.65
2022-11-24T11:23:54.790Z,7.67
2022-11-24T11:26:24.043Z,7.63
2022-11-24T11:35:02.506Z,7.34
2022-11-24T11:37:31.004Z,7.38
2022-11-24T11:39:58.348Z,7.57
2022-11-24T11:43:01.480Z,7.79
2022-11-24T11:45:33.616Z,8.05
2022-11-24T11:48:03.193Z,7.96
2022-11-24T11:51:06.737Z,7.85
2022-11-24T11:53:41.604Z,7.87
2022-11-24T11:56:24.172Z,7.76
2022-11-24T11:58:50.479Z,7.78
2022-11-24T12:01:42.986Z,7.72
2022-11-24T12:04:15.146Z,7.62
2022-11-24T12:07:00.116Z,7.59
2022-11-24T12:09:29.483Z,7.58
2022-11-24T12:12:14.222Z,7.60
2022-11-24T12:14:43.735Z,7.64
2022-11-24T12:17:19.126Z,7.70
2022-11-24T12:19:57.332Z,7.78
2022-11-24T12:22:38.197Z,7.87
2022-11-24T12:25:22.384Z,7.91
2022-11-24T12:27:53.879Z,7.93
2022-11-24T12:30:22.564Z,8.03
2022-11-24T12:33:17.024Z,8.29
2022-11-24T12:35:52.099Z,8.50
2022-11-24T12:38:44.213Z,8.74
2022-11-24T12:41:42.145Z,8.75
2022-11-24T12:44:36.755Z,8.75
2022-11-24T12:47:19.212Z,8.58
2022-11-24T12:50:01.197Z,8.60
2022-11-24T12:52:57.211Z,8.59
2022-11-24T12:55:26.323Z,8.65
2022-11-24T12:58:11.025Z,8.55
2022-11-24T13:01:02.194Z,8.56
2022-11-24T13:03:49.597Z,8.61
2022-11-24T13:06:35.386Z,8.53
2022-11-24T13:09:09.300Z,8.59
2022-11-24T13:11:48.903Z,8.48
2022-11-24T13:14:22.563Z,8.35
2022-11-24T13:19:48.272Z,8.38
2022-11-24T13:22:25.625Z,8.51
2022-11-24T13:25:24.008Z,8.46
2022-11-24T13:27:53.197Z,8.50
2022-11-24T13:30:34.773Z,8.40
2022-11-24T13:33:16.943Z,8.36
2022-11-24T13:36:01.761Z,8.24
2022-11-24T13:38:41.965Z,8.24
2022-11-24T13:41:27.676Z,8.20
2022-11-24T13:44:13.678Z,8.16
2022-11-24T13:47:06.785Z,8.24
2022-11-24T13:49:46.316Z,8.26
2022-11-24T13:53:06.606Z,8.23
2022-11-24T13:55:38.784Z,8.22
2022-11-24T13:58:11.144Z,8.15
2022-11-24T14:00:58.361Z,8.18
2022-11-24T14:04:07.010Z,8.19
2022-11-24T14:06:36.450Z,8.25
2022-11-24T14:09:17.648Z,8.37
2022-11-24T14:11:53.543Z,8.50
2022-11-24T14:14:21.060Z,8.59
2022-11-24T14:16:47.483Z,8.53
2022-11-24T14:19:18.669Z,8.58
2022-11-24T14:21:45.446Z,8.72
2022-11-24T14:24:23.013Z,8.63
2022-11-24T14:26:51.506Z,8.63
2022-11-24T14:29:21.221Z,8.69
2022-11-24T14:32:06.066Z,8.72
2022-11-24T14:34:35.975Z,8.74
2022-11-24T14:37:02.768Z,8.65
2022-11-24T14:39:30.167Z,8.30
2022-11-24T14:42:15.885Z,8.19
2022-11-24T14:44:48.188Z,8.13
2022-11-24T14:47:30.169Z,8.19
2022-11-24T14:50:05.697Z,8.02
2022-11-24T14:52:32.494Z,8.11
2022-11-24T14:55:21.414Z,8.08
2022-11-24T14:57:47.767Z,8.09
2022-11-24T15:00:26.945Z,8.00
2022-11-24T15:02:56.038Z,7.92
2022-11-24T15:05:24.528Z,7.85
2022-11-24T15:08:02.928Z,7.70
2022-11-24T15:10:34.402Z,7.53
2022-11-24T15:13:03.745Z,7.37
2022-11-24T15:15:38.611Z,7.14
2022-11-24T15:18:06.639Z,6.88
2022-11-24T15:20:37.731Z,6.80
2022-11-24T15:23:27.308Z,6.66
2022-11-24T15:26:17.314Z,6.50
2022-11-24T15:28:46.307Z,5.98
2022-11-24T15:31:13.970Z,5.54
2022-11-24T15:33:42.110Z,5.24
2022-11-24T15:36:08.702Z,4.78
2022-11-24T15:38:35.238Z,4.50
2022-11-24T15:41:01.772Z,4.22
2022-11-24T15:43:34.149Z,4.14
2022-11-24T15:46:02.005Z,4.05
2022-11-24T15:48:29.054Z,3.98
2022-11-24T15:50:57.399Z,3.92
2022-11-24T15:53:25.731Z,3.83
2022-11-24T15:55:52.552Z,3.68
2022-11-24T15:58:19.279Z,3.56
2022-11-24T16:00:45.775Z,3.47
2022-11-24T16:03:45.275Z,3.25
2022-11-24T16:05:58.743Z,3.10
2022-11-24T16:08:25.166Z,3.06
2022-11-24T16:10:51.641Z,2.88
2022-11-24T16:13:18.170Z,2.83
2022-11-24T16:15:45.900Z,2.82
2022-11-24T16:18:14.694Z,2.87
2022-11-24T16:20:41.127Z,2.81
2022-11-24T16:23:07.756Z,2.82
2022-11-24T16:25:34.263Z,2.79
2022-11-24T16:28:00.683Z,2.76
2022-11-24T16:30:27.248Z,2.76
2022-11-24T16:32:53.797Z,2.72
2022-11-24T16:35:20.287Z,2.53
2022-11-24T16:37:46.757Z,2.27
2022-11-24T16:40:13.459Z,2.26
2022-11-24T16:42:40.009Z,2.21
2022-11-24T16:45:07.075Z,1.91
2022-11-24T16:47:39.004Z,1.99
2022-11-24T16:50:06.986Z,1.89
2022-11-24T16:52:33.445Z,1.91
2022-11-24T16:55:00.172Z,1.98
2022-11-24T16:57:26.521Z,1.86
2022-11-24T16:59:52.852Z,1.81
2022-11-24T17:02:19.301Z,1.84
2022-11-24T17:04:45.763Z,1.66
2022-11-24T17:07:13.755Z,1.76
2022-11-24T17:09:40.932Z,1.92
2022-11-24T17:12:07.560Z,2.20
2022-11-24T17:14:34.284Z,2.02
2022-11-24T17:17:00.967Z,1.65
2022-11-24T17:19:27.476Z,1.63
2022-11-24T17:21:54.498Z,1.65
2022-11-24T17:24:20.807Z,1.63
2022-11-24T17:26:49.712Z,1.55
2022-11-24T17:29:16.201Z,1.65
2022-11-24T17:31:43.026Z,1.72
2022-11-24T17:34:11.459Z,1.73
2022-11-24T17:36:39.595Z,1.84
2022-11-24T17:39:09.343Z,1.82
2022-11-24T17:41:35.983Z,1.68
2022-11-24T17:44:02.873Z,1.63
2022-11-24T17:46:30.563Z,1.68
2022-11-24T17:48:57.278Z,1.61
2022-11-24T17:51:25.641Z,1.50
2022-11-24T17:53:52.919Z,1.50
2022-11-24T17:56:21.694Z,1.52
2022-11-24T17:58:48.116Z,1.65
2022-11-24T18:01:14.510Z,1.57
2022-11-24T18:03:41.542Z,1.50
2022-11-24T18:06:09.325Z,1.47
2022-11-24T18:08:36.669Z,1.53
2022-11-24T18:11:06.744Z,1.54
2022-11-24T18:13:54.943Z,1.62
2022-11-24T18:16:19.576Z,1.69
2022-11-24T18:18:50.070Z,1.72
2022-11-24T18:21:17.415Z,1.81
2022-11-24T18:23:44.784Z,1.74
2022-11-24T18:26:13.003Z,1.62
2022-11-24T18:28:39.390Z,1.54
2022-11-24T18:31:07.183Z,1.50
2022-11-24T18:33:37.388Z,1.54
2022-11-24T18:36:07.162Z,1.53
2022-11-24T18:38:37.125Z,1.54
2022-11-24T18:41:04.114Z,1.63
2022-11-24T18:43:30.538Z,1.26
2022-11-24T18:45:57.099Z,1.04
2022-11-24T18:48:24.626Z,1.28
2022-11-24T18:50:51.955Z,1.36
2022-11-24T18:53:18.961Z,1.47
2022-11-24T18:55:58.431Z,1.63
2022-11-24T18:58:26.816Z,1.72
2022-11-24T19:00:53.904Z,1.91
2022-11-24T19:03:20.313Z,1.97
2022-11-24T19:05:46.810Z,1.96
2022-11-24T19:08:13.130Z,1.88
2022-11-24T19:10:39.929Z,1.77
2022-11-24T19:13:06.285Z,1.73
2022-11-24T19:15:35.502Z,1.64
2022-11-24T19:18:02.151Z,1.62
2022-11-24T19:20:28.971Z,1.66
2022-11-24T19:22:55.325Z,1.59
2022-11-24T19:25:21.766Z,1.60
2022-11-24T19:27:48.186Z,1.71
2022-11-24T19:30:15.569Z,1.69
2022-11-24T19:32:42.047Z,1.65
2022-11-24T19:35:08.544Z,1.53
2022-11-24T19:37:35.115Z,1.52
2022-11-24T19:40:01.484Z,1.43
2022-11-24T19:42:27.898Z,1.51
2022-11-24T19:44:56.719Z,1.71
2022-11-24T19:47:23.324Z,1.87
2022-11-24T19:49:49.707Z,1.98
2022-11-24T19:52:16.082Z,2.19
2022-11-24T19:54:42.489Z,2.24
2022-11-24T19:57:08.921Z,2.12
2022-11-24T19:59:35.361Z,2.16
2022-11-24T20:02:02.614Z,2.02
2022-11-24T20:04:29.462Z,1.99
2022-11-24T20:06:55.819Z,1.98
2022-11-24T20:09:22.188Z,2.05
2022-11-24T20:11:49.004Z,2.09
2022-11-24T20:14:17.376Z,2.07
2022-11-24T20:16:46.399Z,2.11
2022-11-24T20:19:13.689Z,2.06
2022-11-24T20:21:41.633Z,2.19
2022-11-24T20:24:11.556Z,2.21
2022-11-24T20:26:39.415Z,2.25
2022-11-24T20:29:06.312Z,2.12
2022-11-24T20:31:34.093Z,2.06
2022-11-24T20:34:01.479Z,2.08
2022-11-24T20:36:28.853Z,2.08
2022-11-24T20:38:55.218Z,2.16
2022-11-24T20:41:26.437Z,2.17
2022-11-24T20:43:53.844Z,2.09
2022-11-24T20:46:21.648Z,2.07
2022-11-24T20:48:48.528Z,2.07
2022-11-24T20:51:17.111Z,1.90
2022-11-24T20:53:43.707Z,1.86
2022-11-24T20:56:11.663Z,1.82
2022-11-24T20:58:38.002Z,1.91
2022-11-24T21:01:08.812Z,1.92
2022-11-24T21:03:39.803Z,2.02
2022-11-24T21:06:09.430Z,2.08
2022-11-24T21:08:36.600Z,2.18
2022-11-24T21:11:04.360Z,2.27
2022-11-24T21:13:32.998Z,2.26
2022-11-24T21:15:59.553Z,2.18
2022-11-24T21:18:25.901Z,2.15
2022-11-24T21:20:52.302Z,2.17
2022-11-24T21:23:20.452Z,2.17
2022-11-24T21:25:46.775Z,2.27
2022-11-24T21:28:13.162Z,2.24
2022-11-24T21:30:39.746Z,2.15
2022-11-24T21:33:06.193Z,2.17
2022-11-24T21:35:36.746Z,2.21
2022-11-24T21:38:03.596Z,2.28
2022-11-24T21:40:30.017Z,2.37
2022-11-24T21:42:57.703Z,2.32
2022-11-24T21:45:24.153Z,2.21
2022-11-24T21:47:50.679Z,2.15
2022-11-24T21:50:17.334Z,2.06
2022-11-24T21:52:43.743Z,1.97
2022-11-24T21:55:10.588Z,1.94
2022-11-24T21:57:36.902Z,1.92
2022-11-24T22:00:03.755Z,1.88
2022-11-24T22:02:33.229Z,1.89
2022-11-24T22:04:59.681Z,1.86
2022-11-24T22:07:30.098Z,1.92
2022-11-24T22:09:56.494Z,2.09
2022-11-24T22:12:22.849Z,2.20
2022-11-24T22:14:49.202Z,2.29
2022-11-24T22:17:15.621Z,2.08
2022-11-24T22:19:41.951Z,1.99
2022-11-24T22:22:08.376Z,2.06
2022-11-24T22:24:34.695Z,2.15
2022-11-24T22:27:02.856Z,2.19
2022-11-24T22:29:29.270Z,2.29
2022-11-24T22:31:55.677Z,2.27
2022-11-24T22:34:22.041Z,2.31
2022-11-24T22:36:48.471Z,2.38
2022-11-24T22:39:14.914Z,2.36
2022-11-24T22:41:41.279Z,2.37
2022-11-24T22:44:07.814Z,2.21
2022-11-24T22:46:34.218Z,2.13
2022-11-24T22:49:01.598Z,2.00
2022-11-24T22:51:31.331Z,2.10
2022-11-24T22:54:00.487Z,2.12
2022-11-24T22:56:32.260Z,2.26
2022-11-24T22:59:00.111Z,2.24
2022-11-24T23:01:28.281Z,2.22
2022-11-24T23:03:55.003Z,2.17
2022-11-24T23:06:24.615Z,2.33
2022-11-24T23:08:52.056Z,2.39
2022-11-24T23:11:32.719Z,2.30
2022-11-24T23:14:02.146Z,2.02
2022-11-24T23:16:29.175Z,1.91
2022-11-24T23:18:55.852Z,1.58
2022-11-24T23:21:30.968Z,1.50
2022-11-24T23:24:00.336Z,1.68
2022-11-24T23:26:33.314Z,1.76
2022-11-24T23:29:00.208Z,1.83
2022-11-24T23:31:28.892Z,2.12
2022-11-24T23:33:59.675Z,2.37
2022-11-24T23:36:27.804Z,2.50
2022-11-24T23:38:54.498Z,2.60
2022-11-24T23:41:25.625Z,2.64
2022-11-24T23:43:52.849Z,2.65
2022-11-24T23:46:24.493Z,2.32
2022-11-24T23:48:51.910Z,2.29
2022-11-24T23:51:20.923Z,2.46
2022-11-24T23:53:48.292Z,2.51
2022-11-24T23:56:17.643Z,2.38
2022-11-24T23:58:44.271Z,2.45
